Time;durP1;ratioP1;P1;durP2;ratioP2;P2;SDS_P1;SDS_P2;PMS_P1;PMS_P2;Temp;Humidity;BMP_temperature;BMP_pressure;BME280_temperature;BME280_humidity;BME280_pressure;Samples;Min_cycle;Max_cycle;Signal;HPM_P1;HPM_P2
2022/05/23 00:00:39;;;;;;;7.30;2.83;;;;;;;20.49;63.55;99794.63;4913862;29;20228;-69
2022/05/23 00:03:07;;;;;;;5.00;3.30;;;;;;;20.48;62.79;99790.31;4911222;29;20215;-68
2022/05/23 00:05:42;;;;;;;6.47;3.33;;;;;;;20.44;63.95;99788.28;4911757;29;20205;-69
2022/05/23 00:08:10;;;;;;;10.70;3.17;;;;;;;20.41;63.76;99788.75;4913547;29;20431;-69
2022/05/23 00:10:39;;;;;;;5.30;2.70;;;;;;;20.36;63.58;99784.06;4916913;29;20631;-69
2022/05/23 00:13:07;;;;;;;5.87;3.30;;;;;;;20.30;63.86;99776.88;4912215;29;20797;-67
2022/05/23 00:15:35;;;;;;;6.13;3.00;;;;;;;20.24;64.49;99767.00;4915263;29;20223;-67
2022/05/23 00:18:03;;;;;;;6.87;2.87;;;;;;;20.22;63.88;99774.50;4909660;29;20666;-67
2022/05/23 00:20:30;;;;;;;3.83;2.23;;;;;;;20.19;61.99;99774.94;4909451;29;20208;-68
2022/05/23 00:22:58;;;;;;;5.40;3.07;;;;;;;20.17;61.19;99771.66;4914074;29;20212;-68
2022/05/23 00:25:26;;;;;;;5.43;2.70;;;;;;;20.11;61.31;99759.94;4913761;29;20208;-68
2022/05/23 00:27:57;;;;;;;5.30;2.43;;;;;;;20.15;61.06;99760.28;4909333;29;20248;-68
2022/05/23 00:30:28;;;;;;;8.30;2.73;;;;;;;20.15;60.90;99761.09;4910808;29;20222;-68
2022/05/23 00:35:53;;;;;;;4.47;2.53;;;;;;;20.07;59.62;99752.53;4911659;29;20276;-68
2022/05/23 00:38:22;;;;;;;5.73;2.50;;;;;;;20.03;59.34;99746.78;4913335;29;20220;-68
2022/05/23 00:43:13;;;;;;;6.47;2.77;;;;;;;19.97;59.64;99749.53;4914207;29;20243;-68
2022/05/23 00:43:53;;;;;;;7.37;3.43;;;;;;;19.92;59.67;99748.38;4914639;29;20610;-68
2022/05/23 00:46:24;;;;;;;7.87;3.00;;;;;;;19.88;58.92;99744.47;4913260;29;20325;-68
2022/05/23 00:48:52;;;;;;;4.73;2.90;;;;;;;19.88;58.76;99743.66;4912264;29;20324;-68
2022/05/23 00:51:22;;;;;;;6.47;3.00;;;;;;;19.81;59.31;99730.28;4909142;29;20222;-68
2022/05/23 00:53:54;;;;;;;4.87;2.70;;;;;;;19.81;59.29;99730.28;4913101;29;20227;-67
2022/05/23 00:56:26;;;;;;;5.13;2.77;;;;;;;19.73;59.25;99721.69;4911237;29;20209;-67
2022/05/23 00:58:59;;;;;;;5.57;3.00;;;;;;;19.72;59.22;99723.56;4914610;29;20228;-67
2022/05/23 01:01:30;;;;;;;8.70;2.77;;;;;;;19.75;59.01;99715.06;4912544;29;20580;-67
2022/05/23 01:04:02;;;;;;;7.77;3.03;;;;;;;19.76;58.67;99711.31;4908057;29;20205;-67
2022/05/23 01:06:30;;;;;;;6.33;3.63;;;;;;;19.73;59.37;99714.44;4909425;29;20261;-67
2022/05/23 01:08:58;;;;;;;6.00;3.13;;;;;;;19.72;59.21;99712.81;4913707;29;20436;-67
2022/05/23 01:11:26;;;;;;;5.47;3.03;;;;;;;19.63;59.92;99699.88;4916734;29;20596;-67
2022/05/23 01:13:56;;;;;;;5.73;3.07;;;;;;;19.57;60.01;99690.03;4912922;29;20323;-67
2022/05/23 01:16:26;;;;;;;6.03;3.07;;;;;;;19.54;59.87;99688.63;4910857;29;20221;-67
2022/05/23 01:18:56;;;;;;;5.57;3.07;;;;;;;19.53;59.79;99678.91;4910640;29;20611;-68
2022/05/23 01:21:45;;;;;;;8.37;2.90;;;;;;;19.53;60.10;99668.16;4911070;29;20208;-68
2022/05/23 01:24:20;;;;;;;6.33;2.97;;;;;;;19.50;60.01;99649.78;4909880;29;20590;-68
2022/05/23 01:26:56;;;;;;;7.43;3.27;;;;;;;19.46;60.43;99645.88;4909690;29;20833;-67
2022/05/23 01:29:24;;;;;;;5.83;3.40;;;;;;;19.49;60.03;99650.84;4911412;29;20239;-69
2022/05/23 01:31:51;;;;;;;12.17;3.90;;;;;;;19.46;60.10;99659.31;4910678;29;20268;-69
2022/05/23 01:34:19;;;;;;;5.67;2.87;;;;;;;19.44;59.96;99664.09;4908849;29;20746;-69
2022/05/23 01:36:47;;;;;;;6.43;2.90;;;;;;;19.38;59.93;99673.88;4910771;29;20307;-69
2022/05/23 01:39:15;;;;;;;5.17;2.93;;;;;;;19.41;60.07;99669.94;4911270;29;20213;-69
2022/05/23 01:41:42;;;;;;;6.13;3.07;;;;;;;19.33;60.04;99656.81;4910133;29;20501;-69
2022/05/23 01:44:11;;;;;;;7.27;2.87;;;;;;;19.30;60.19;99651.84;4913744;29;20216;-69
2022/05/23 01:46:39;;;;;;;7.90;3.33;;;;;;;19.26;60.24;99650.69;4913730;29;20272;-69
2022/05/23 01:49:07;;;;;;;7.77;3.53;;;;;;;19.22;59.89;99650.28;4912638;29;20220;-69
2022/05/23 01:51:35;;;;;;;6.47;3.00;;;;;;;19.23;60.17;99643.06;4911216;29;20706;-69
2022/05/23 01:54:02;;;;;;;5.03;2.80;;;;;;;19.21;60.30;99634.41;4910197;29;20686;-69
2022/05/23 01:56:30;;;;;;;6.70;3.23;;;;;;;19.15;60.02;99628.88;4912471;29;20681;-69
2022/05/23 02:01:45;;;;;;;6.37;2.83;;;;;;;19.10;60.62;99626.03;4911014;29;20239;-69
2022/05/23 02:04:12;;;;;;;4.33;3.00;;;;;;;19.16;60.44;99624.34;4914245;29;20235;-69
2022/05/23 02:06:40;;;;;;;6.77;3.27;;;;;;;19.13;60.60;99619.38;4912556;29;20208;-69
2022/05/23 02:09:08;;;;;;;5.50;2.67;;;;;;;19.12;60.48;99625.81;4913950;29;20318;-69
2022/05/23 02:11:36;;;;;;;6.97;3.50;;;;;;;19.11;60.78;99618.78;4912257;29;20265;-69
2022/05/23 02:14:03;;;;;;;4.90;2.83;;;;;;;19.07;60.61;99610.38;4912561;29;20274;-68
2022/05/23 02:16:31;;;;;;;7.47;3.40;;;;;;;19.05;60.34;99612.44;4910370;29;20213;-68
2022/05/23 02:19:03;;;;;;;5.97;2.90;;;;;;;19.03;60.50;99613.72;4912134;29;20223;-68
2022/05/23 02:21:33;;;;;;;6.73;3.43;;;;;;;18.99;60.67;99602.63;4915943;29;20626;-68
2022/05/23 02:24:03;;;;;;;5.70;2.67;;;;;;;19.06;60.50;99606.03;4915669;29;20246;-68
2022/05/23 02:26:31;;;;;;;6.00;3.10;;;;;;;19.04;60.36;99605.44;4918691;29;20618;-68
2022/05/23 02:28:59;;;;;;;7.47;2.97;;;;;;;19.00;60.44;99606.91;4912503;29;20205;-68
2022/05/23 02:31:28;;;;;;;5.47;2.60;;;;;;;19.02;59.96;99604.00;4911270;29;20729;-67
2022/05/23 02:33:56;;;;;;;8.07;3.23;;;;;;;19.01;60.25;99599.66;4913728;29;20329;-68
2022/05/23 02:36:25;;;;;;;8.80;3.07;;;;;;;19.04;60.18;99599.25;4919271;29;20236;-68
2022/05/23 02:38:56;;;;;;;7.33;3.07;;;;;;;19.04;60.17;99597.38;4914680;29;20216;-68
2022/05/23 02:41:25;;;;;;;6.47;3.07;;;;;;;19.04;60.20;99599.25;4914054;29;20209;-68
2022/05/23 02:43:52;;;;;;;4.57;3.13;;;;;;;19.00;60.55;99588.09;4913855;29;20208;-68
2022/05/23 02:46:23;;;;;;;4.83;2.70;;;;;;;18.99;60.60;99575.75;4912528;29;20209;-68
2022/05/23 02:48:53;;;;;;;6.03;2.93;;;;;;;19.08;60.18;99573.56;4916081;29;20204;-68
2022/05/23 02:51:22;;;;;;;5.50;3.23;;;;;;;19.04;60.38;99567.00;4916845;29;20228;-68
2022/05/23 02:53:51;;;;;;;4.33;2.93;;;;;;;19.04;60.46;99578.56;4915847;29;20208;-68
2022/05/23 02:56:21;;;;;;;4.87;2.93;;;;;;;19.02;60.27;99577.13;4915023;29;20280;-68
2022/05/23 02:58:51;;;;;;;5.83;2.70;;;;;;;18.95;60.76;99579.91;4910299;29;20714;-68
2022/05/23 03:01:20;;;;;;;5.03;2.90;;;;;;;18.97;60.75;99574.31;4911404;29;20288;-68
2022/05/23 03:03:47;;;;;;;6.40;2.67;;;;;;;18.95;60.65;99565.66;4912411;29;20276;-68
2022/05/23 03:06:15;;;;;;;4.57;2.77;;;;;;;18.95;60.28;99561.09;4912307;29;20217;-68
2022/05/23 03:08:43;;;;;;;6.20;2.73;;;;;;;18.98;60.28;99562.53;4914533;29;20222;-68
2022/05/23 03:11:12;;;;;;;4.97;3.10;;;;;;;19.04;60.13;99564.31;4913725;29;20232;-68
2022/05/23 03:13:40;;;;;;;5.03;3.00;;;;;;;19.07;59.88;99578.13;4912944;29;20596;-68
2022/05/23 03:16:09;;;;;;;5.33;2.20;;;;;;;19.05;60.00;99577.53;4913337;29;20760;-68
2022/05/23 03:18:37;;;;;;;5.50;2.87;;;;;;;19.05;59.91;99577.53;4914798;29;20229;-68
2022/05/23 03:21:07;;;;;;;7.07;2.87;;;;;;;19.07;60.08;99580.00;4913297;29;20237;-68
2022/05/23 03:29:10;;;;;;;5.53;2.77;;;;;;;18.98;60.29;99595.59;4912964;29;20709;-68
2022/05/23 03:31:38;;;;;;;7.70;2.87;;;;;;;19.04;60.31;99605.44;4911005;29;20240;-68
2022/05/23 03:34:06;;;;;;;9.67;3.03;;;;;;;19.07;59.83;99607.69;4913458;29;20603;-68
2022/05/23 03:36:34;;;;;;;5.07;2.73;;;;;;;19.07;59.41;99614.91;4915111;29;20218;-68
2022/05/23 03:39:03;;;;;;;4.57;2.90;;;;;;;19.05;59.95;99612.44;4913780;29;20238;-68
2022/05/23 03:41:35;;;;;;;11.67;2.63;;;;;;;19.11;59.53;99627.66;4920951;29;20212;-68
2022/05/23 03:44:08;;;;;;;7.10;2.80;;;;;;;19.16;58.91;99649.34;4911927;29;20675;-68
2022/05/23 03:46:36;;;;;;;9.10;3.23;;;;;;;19.21;59.16;99658.56;4914280;29;20275;-68
2022/05/23 03:49:06;;;;;;;6.60;2.50;;;;;;;19.22;58.99;99676.34;4914953;29;20205;-69
2022/05/23 03:51:34;;;;;;;6.87;2.90;;;;;;;19.22;59.22;99700.53;4912419;29;20582;-68
2022/05/23 03:54:02;;;;;;;5.37;2.70;;;;;;;19.26;59.58;99742.06;4912248;29;20319;-68
2022/05/23 03:56:30;;;;;;;4.20;2.80;;;;;;;19.25;60.04;99791.47;4915834;29;20238;-68
2022/05/23 03:58:59;;;;;;;8.00;3.33;;;;;;;19.26;60.11;99790.44;4916047;29;20212;-68
2022/05/23 04:01:30;;;;;;;5.90;3.60;;;;;;;19.18;61.33;99768.16;4916296;29;20667;-68
2022/05/23 04:03:58;;;;;;;4.93;3.17;;;;;;;19.14;61.47;99775.03;4910413;29;20233;-68
2022/05/23 04:06:26;;;;;;;7.47;3.60;;;;;;;19.15;61.83;99773.16;4912356;29;20264;-68
2022/05/23 04:08:54;;;;;;;8.90;3.57;;;;;;;19.07;62.78;99782.34;4911862;29;20387;-68
2022/05/23 04:11:24;;;;;;;5.40;3.67;;;;;;;19.06;63.57;99769.13;4914804;29;20291;-68
2022/05/23 04:13:56;;;;;;;7.37;3.80;;;;;;;19.04;63.73;99771.19;4910505;29;20688;-68
2022/05/23 04:16:28;;;;;;;8.40;4.07;;;;;;;19.07;63.33;99771.59;4915066;29;20312;-68
2022/05/23 04:18:58;;;;;;;8.73;3.67;;;;;;;19.12;62.64;99749.41;4911950;29;20772;-68
2022/05/23 04:21:25;;;;;;;5.73;3.57;;;;;;;19.10;63.29;99762.25;4911691;29;20223;-68
2022/05/23 04:23:53;;;;;;;9.60;3.70;;;;;;;19.09;63.39;99764.09;4913410;29;20642;-68
2022/05/23 04:26:21;;;;;;;7.33;3.63;;;;;;;19.10;64.32;99748.81;4911237;29;20296;-68
2022/05/23 04:28:48;;;;;;;6.63;3.47;;;;;;;19.17;64.21;99757.66;4913682;29;20245;-68
2022/05/23 04:31:17;;;;;;;9.70;3.77;;;;;;;19.01;68.35;99752.81;4913820;29;20249;-68
2022/05/23 04:36:32;;;;;;;19.87;4.57;;;;;;;18.62;73.50;99727.13;4915259;29;20217;-68
2022/05/23 04:38:59;;;;;;;12.33;5.00;;;;;;;18.46;75.78;99706.16;4911641;29;20299;-68
2022/05/23 04:41:27;;;;;;;11.33;4.57;;;;;;;18.36;75.63;99696.72;4912989;29;20219;-68
2022/05/23 04:43:59;;;;;;;10.47;4.77;;;;;;;18.25;76.54;99692.03;4910109;29;20216;-69
2022/05/23 04:46:27;;;;;;;10.80;5.50;;;;;;;18.26;76.51;99704.41;4915342;29;20223;-68
2022/05/23 04:51:53;;;;;;;11.03;4.93;;;;;;;18.07;80.24;99662.41;4886663;29;20233;-68
2022/05/23 04:54:21;;;;;;;8.33;4.97;;;;;;;17.96;81.63;99639.78;4901154;29;20303;-68
2022/05/23 04:56:48;;;;;;;13.87;6.07;;;;;;;18.06;81.06;99639.31;4911826;29;20314;-69
2022/05/23 04:59:16;;;;;;;9.50;5.47;;;;;;;18.20;80.63;99635.53;4911588;29;20227;-68
2022/05/23 05:01:44;;;;;;;14.80;6.70;;;;;;;18.22;80.63;99600.41;4916372;29;20221;-68
2022/05/23 05:04:13;;;;;;;13.47;6.37;;;;;;;18.15;81.39;99562.91;4911719;29;20223;-68
2022/05/23 05:06:40;;;;;;;12.13;5.80;;;;;;;18.08;82.18;99529.13;4913792;29;20320;-69
2022/05/23 05:09:11;;;;;;;12.17;5.20;;;;;;;18.03;82.75;99489.53;4913659;29;20567;-68
2022/05/23 05:11:39;;;;;;;13.17;5.30;;;;;;;17.99;81.70;99472.25;4911471;29;20253;-69
2022/05/23 05:14:07;;;;;;;13.07;5.93;;;;;;;17.96;82.85;99480.72;4909174;29;20459;-68
2022/05/23 05:16:34;;;;;;;13.30;6.87;;;;;;;18.02;82.00;99487.91;4914139;29;20211;-68
2022/05/23 05:19:04;;;;;;;12.83;5.13;;;;;;;18.14;81.67;99483.44;4909558;29;20212;-68
2022/05/23 05:21:33;;;;;;;7.53;4.90;;;;;;;18.12;82.73;99447.16;4916643;29;20661;-68
2022/05/23 05:24:07;;;;;;;9.27;4.97;;;;;;;18.14;82.73;99429.78;4910820;29;21842;-68
2022/05/23 05:26:35;;;;;;;9.60;5.33;;;;;;;18.17;81.46;99426.69;4908349;29;20588;-68
2022/05/23 05:29:02;;;;;;;15.80;5.73;;;;;;;18.23;82.08;99430.31;4913371;29;20213;-68
2022/05/23 05:31:37;;;;;;;8.87;5.53;;;;;;;18.23;82.29;99403.47;4913719;29;20256;-68
2022/05/23 05:34:11;;;;;;;9.10;5.33;;;;;;;18.19;82.20;99389.72;4912963;29;20591;-68
2022/05/23 05:36:44;;;;;;;7.83;4.90;;;;;;;18.16;81.83;99422.34;4915053;29;20201;-68
2022/05/23 05:39:15;;;;;;;13.67;5.33;;;;;;;18.17;81.42;99425.84;4913772;29;20227;-68
2022/05/23 05:41:48;;;;;;;8.03;4.70;;;;;;;18.16;81.02;99426.88;4912096;29;20205;-68
2022/05/23 05:44:19;;;;;;;9.13;5.33;;;;;;;18.21;81.14;99435.91;4914094;29;20304;-68
2022/05/23 05:46:52;;;;;;;10.07;5.20;;;;;;;18.21;81.56;99433.22;4909004;29;20239;-68
2022/05/23 05:49:43;;;;;;;13.73;5.40;;;;;;;18.19;80.82;99427.28;4912573;29;20220;-68
2022/05/23 05:52:15;;;;;;;8.40;5.40;;;;;;;18.25;81.15;99415.66;4915412;29;20232;-68
2022/05/23 05:54:43;;;;;;;8.37;5.00;;;;;;;18.35;81.00;99401.72;4913873;29;20298;-68
2022/05/23 05:57:13;;;;;;;8.07;4.93;;;;;;;18.36;82.34;99406.84;4913283;29;20212;-69
2022/05/23 05:59:45;;;;;;;7.17;5.30;;;;;;;18.39;81.51;99413.63;4910595;29;20593;-69
2022/05/23 06:02:14;;;;;;;10.13;5.97;;;;;;;18.39;80.99;99408.25;4905577;29;20239;-68
2022/05/23 06:04:42;;;;;;;7.97;5.57;;;;;;;18.45;80.38;99411.94;4911405;29;20296;-69
2022/05/23 06:12:51;;;;;;;12.37;7.10;;;;;;;18.55;80.89;99396.13;4910690;29;20218;-69
2022/05/23 06:15:19;;;;;;;5.83;4.97;;;;;;;18.66;79.93;99395.34;4911815;29;20624;-69
2022/05/23 06:17:46;;;;;;;10.87;6.17;;;;;;;18.78;79.87;99386.31;4912233;29;20646;-69
2022/05/23 06:20:15;;;;;;;10.87;5.43;;;;;;;18.78;80.79;99401.63;4912263;29;20742;-70
2022/05/23 06:22:50;;;;;;;12.20;5.87;;;;;;;18.88;77.10;99395.72;4909626;29;20244;-69
2022/05/23 06:25:18;;;;;;;11.20;5.77;;;;;;;18.90;77.64;99394.44;4913913;29;20254;-69
2022/05/23 06:27:46;;;;;;;8.57;5.23;;;;;;;18.98;76.84;99404.03;4910088;29;20209;-69
2022/05/23 06:30:16;;;;;;;9.90;5.27;;;;;;;18.98;78.88;99396.81;4910990;29;20231;-69
2022/05/23 06:32:44;;;;;;;12.17;6.27;;;;;;;19.00;79.69;99405.44;4910447;29;20235;-69
2022/05/23 06:35:13;;;;;;;9.63;6.10;;;;;;;19.10;79.86;99405.69;4910796;29;20283;-69
2022/05/23 06:37:42;;;;;;;10.00;5.60;;;;;;;19.18;78.79;99391.94;4908865;29;20213;-69
2022/05/23 06:40:13;;;;;;;8.90;6.00;;;;;;;19.27;76.93;99399.66;4908737;29;20227;-69
2022/05/23 06:42:41;;;;;;;11.90;6.30;;;;;;;19.33;78.09;99406.81;4908255;29;20291;-69
2022/05/23 06:45:10;;;;;;;9.60;5.63;;;;;;;19.30;76.16;99402.72;4907844;29;20648;-69
2022/05/23 06:47:38;;;;;;;7.40;5.63;;;;;;;19.37;76.15;99413.38;4911995;29;20691;-69
2022/05/23 06:50:06;;;;;;;11.00;6.33;;;;;;;19.38;76.41;99420.38;4911870;29;20217;-69
2022/05/23 06:52:34;;;;;;;9.20;5.80;;;;;;;19.48;75.76;99420.66;4911482;29;20247;-69
2022/05/23 06:55:02;;;;;;;10.53;5.90;;;;;;;19.59;76.67;99419.88;4912251;29;20333;-69
2022/05/23 06:57:47;;;;;;;11.47;6.67;;;;;;;19.63;76.67;99407.59;4911209;29;20679;-69
2022/05/23 07:00:17;;;;;;;10.23;6.50;;;;;;;19.64;77.54;99411.94;4912603;29;20299;-69
2022/05/23 07:02:46;;;;;;;11.70;6.80;;;;;;;19.71;76.81;99415.31;4914653;29;20736;-69
2022/05/23 07:13:37;;;;;;;8.50;6.27;;;;;;;19.86;76.20;99431.84;4858929;29;20800;-69
2022/05/23 07:16:06;;;;;;;9.37;5.60;;;;;;;19.88;74.55;99427.03;4915996;29;20576;-68
2022/05/23 07:18:33;;;;;;;10.23;5.73;;;;;;;19.88;74.30;99429.72;4917099;29;20208;-69
2022/05/23 07:21:03;;;;;;;8.20;4.87;;;;;;;19.87;74.36;99436.16;4912197;29;20419;-68
2022/05/23 07:23:31;;;;;;;7.70;5.37;;;;;;;19.88;74.28;99437.78;4913922;29;20308;-68
2022/05/23 07:25:58;;;;;;;11.23;5.20;;;;;;;19.82;74.30;99440.59;4918319;29;20213;-69
2022/05/23 07:28:26;;;;;;;7.30;5.00;;;;;;;19.82;74.78;99441.41;4921701;29;20663;-68
2022/05/23 07:30:55;;;;;;;6.97;4.63;;;;;;;19.91;73.84;99442.69;4908927;29;20214;-68
2022/05/23 07:33:23;;;;;;;9.10;4.47;;;;;;;19.87;73.96;99438.84;4912609;29;20253;-68
2022/05/23 07:35:55;;;;;;;8.23;4.63;;;;;;;19.94;73.10;99432.53;4917656;29;20221;-68
2022/05/23 07:38:23;;;;;;;8.60;4.30;;;;;;;19.88;72.56;99436.97;4913245;29;20291;-67
2022/05/23 07:40:50;;;;;;;9.53;4.60;;;;;;;19.84;72.52;99433.94;4917157;29;20220;-67
2022/05/23 07:43:19;;;;;;;6.30;4.07;;;;;;;19.80;73.84;99424.69;4910163;29;20209;-68
2022/05/23 07:45:50;;;;;;;12.30;4.30;;;;;;;20.01;73.33;99425.16;4918830;29;20212;-68
2022/05/23 07:48:19;;;;;;;7.73;4.23;;;;;;;20.01;73.01;99422.47;4909696;29;20227;-68
2022/05/23 07:50:49;;;;;;;5.50;4.17;;;;;;;20.04;72.28;99424.69;4913629;29;20312;-69
2022/05/23 08:01:32;;;;;;;6.17;3.90;;;;;;;20.19;72.14;99407.00;4912380;29;20636;-67
2022/05/23 08:04:01;;;;;;;5.20;3.60;;;;;;;20.32;71.36;99400.53;4912295;29;20209;-67
2022/05/23 08:06:29;;;;;;;5.10;3.73;;;;;;;20.43;71.82;99405.13;4915886;29;20219;-68
2022/05/23 08:08:57;;;;;;;6.17;3.80;;;;;;;20.53;70.79;99402.63;4911817;29;20415;-67
2022/05/23 08:11:24;;;;;;;5.30;3.60;;;;;;;20.55;70.64;99397.84;4908912;29;20216;-65
2022/05/23 08:13:55;;;;;;;6.10;3.87;;;;;;;20.60;69.84;99397.94;4911415;29;20690;-66
2022/05/23 08:16:23;;;;;;;5.90;3.33;;;;;;;20.64;69.26;99404.50;4913705;29;20237;-67
2022/05/23 08:18:51;;;;;;;8.07;4.50;;;;;;;20.51;69.50;99406.63;4912811;29;20569;-66
2022/05/23 08:21:20;;;;;;;8.13;4.23;;;;;;;20.59;68.88;99395.47;4912829;29;20209;-68
2022/05/23 08:23:48;;;;;;;8.60;4.50;;;;;;;20.47;69.33;99410.84;4910147;29;20311;-68
2022/05/23 08:26:16;;;;;;;6.60;3.63;;;;;;;20.50;70.03;99415.75;4913669;29;20296;-68
2022/05/23 08:28:44;;;;;;;6.70;3.33;;;;;;;20.51;70.46;99412.81;4910371;29;20296;-68
2022/05/23 08:31:12;;;;;;;6.50;3.70;;;;;;;20.70;70.07;99415.34;4913630;29;20229;-68
2022/05/23 08:33:40;;;;;;;8.50;4.17;;;;;;;20.74;70.05;99416.53;4913034;29;20809;-68
2022/05/23 08:36:10;;;;;;;7.30;4.23;;;;;;;20.85;70.93;99413.75;4912782;29;20448;-68
2022/05/23 08:38:39;;;;;;;7.23;3.77;;;;;;;21.04;68.80;99401.75;4912927;29;20303;-69
2022/05/23 08:41:17;;;;;;;11.20;4.90;;;;;;;21.24;67.58;99417.50;4911449;29;20584;-69
2022/05/23 08:43:55;;;;;;;7.50;3.57;;;;;;;21.22;69.07;99406.13;4912436;29;20213;-68
2022/05/23 08:46:27;;;;;;;8.07;4.40;;;;;;;21.36;67.78;99417.44;4912202;29;20284;-69
2022/05/23 08:49:05;;;;;;;8.23;4.40;;;;;;;21.47;66.28;99411.13;4911428;29;20220;-70
2022/05/23 08:51:40;;;;;;;8.37;4.43;;;;;;;21.58;66.33;99412.13;4912618;29;20213;-71
2022/05/23 08:54:19;;;;;;;7.30;3.83;;;;;;;21.80;64.53;99418.44;4913064;29;20240;-70
2022/05/23 08:56:54;;;;;;;7.57;4.17;;;;;;;21.90;63.85;99432.06;4912791;29;20240;-69
2022/05/23 08:59:27;;;;;;;6.80;3.80;;;;;;;22.05;63.27;99429.63;4914859;29;20222;-71
2022/05/23 09:01:59;;;;;;;7.50;3.80;;;;;;;22.05;65.48;99421.53;4914078;29;20209;-69
2022/05/23 09:04:43;;;;;;;8.27;4.10;;;;;;;22.23;64.33;99435.81;4913580;29;20509;-69
2022/05/23 09:07:20;;;;;;;5.50;3.33;;;;;;;22.25;65.94;99422.91;4913255;29;20248;-70
2022/05/23 09:09:50;;;;;;;7.05;2.92;;;;;;;22.26;62.69;99429.91;4912680;29;20647;-70
2022/05/23 09:12:18;;;;;;;5.83;3.00;;;;;;;22.51;61.06;99433.78;4914284;29;20304;-70
2022/05/23 09:14:46;;;;;;;7.35;3.63;;;;;;;22.62;59.37;99432.00;4912934;29;20240;-70
2022/05/23 09:17:21;;;;;;;4.45;2.88;;;;;;;22.77;59.34;99440.34;4913431;29;20219;-71
2022/05/23 09:20:00;;;;;;;8.13;3.25;;;;;;;22.69;60.62;99435.31;4914115;29;20295;-69
2022/05/23 09:22:43;;;;;;;6.55;3.17;;;;;;;22.88;60.19;99427.75;4910890;29;20215;-71
2022/05/23 09:25:15;;;;;;;8.77;3.88;;;;;;;23.16;57.63;99426.69;4911542;29;20674;-71
2022/05/23 09:27:51;;;;;;;6.80;3.40;;;;;;;23.12;57.63;99422.88;4914202;29;20580;-71
2022/05/23 09:30:23;;;;;;;9.25;3.97;;;;;;;23.05;58.63;99422.25;4909130;29;20263;-70
2022/05/23 09:32:55;;;;;;;6.85;3.05;;;;;;;23.10;59.91;99397.97;4909847;29;20701;-71
2022/05/23 09:35:24;;;;;;;9.43;4.00;;;;;;;23.29;58.03;99393.84;4913644;29;20849;-69
2022/05/23 09:38:14;;;;;;;10.77;3.42;;;;;;;23.31;58.20;99391.69;4913410;29;20219;-71
2022/05/23 09:40:44;;;;;;;6.85;3.05;;;;;;;23.47;58.17;99385.34;4917034;29;20212;-71
2022/05/23 09:49:10;;;;;;;9.23;3.92;;;;;;;23.60;57.19;99373.28;4913910;29;20726;-67
2022/05/23 09:51:57;;;;;;;6.05;3.20;;;;;;;23.75;57.37;99364.47;4919414;29;20234;-66
2022/05/23 09:54:32;;;;;;;6.13;3.08;;;;;;;23.74;58.38;99365.56;4909545;29;20236;-67
2022/05/23 09:57:03;;;;;;;5.88;2.78;;;;;;;;;;4918846;29;20307;-66
2022/05/23 09:59:34;;;;;;;6.60;2.85;;;;;;;24.03;57.66;99355.97;4914186;29;20247;-68
2022/05/23 10:02:05;;;;;;;7.53;3.78;;;;;;;24.19;56.56;99365.78;4911020;29;20217;-68
2022/05/23 10:04:41;;;;;;;9.88;3.70;;;;;;;24.26;56.08;99361.00;4915911;29;20209;-68
2022/05/23 10:07:20;;;;;;;9.02;3.10;;;;;;;24.06;58.63;99352.75;4912784;29;20220;-68
2022/05/23 10:09:57;;;;;;;8.52;2.95;;;;;;;24.19;58.54;99348.72;4910748;29;20623;-67
2022/05/23 10:12:26;;;;;;;6.68;3.08;;;;;;;24.45;56.96;99349.69;4910472;29;20776;-68
2022/05/23 10:15:05;;;;;;;7.22;3.05;;;;;;;24.36;56.90;99336.63;4911193;29;20240;-69
2022/05/23 10:17:37;;;;;;;9.48;2.65;;;;;;;24.38;57.21;99331.78;4912264;29;20439;-69
2022/05/23 10:20:24;;;;;;;6.43;3.00;;;;;;;24.32;57.83;99334.75;4912838;29;20208;-69
2022/05/23 10:22:58;;;;;;;6.95;3.00;;;;;;;24.35;57.82;99329.63;4915219;29;20203;-68
2022/05/23 10:25:29;;;;;;;6.78;3.25;;;;;;;24.25;57.81;99318.75;4911507;29;20268;-68
2022/05/23 10:28:03;;;;;;;5.45;2.85;;;;;;;24.11;57.98;99317.53;4908321;29;20209;-68
2022/05/23 10:30:34;;;;;;;7.03;3.03;;;;;;;24.06;58.03;99314.81;4909579;29;20213;-68
2022/05/23 10:33:08;;;;;;;7.07;3.20;;;;;;;24.01;58.42;99306.69;4908880;29;20589;-67
2022/05/23 10:35:39;;;;;;;5.32;3.83;;;;;;;24.00;58.67;99302.34;4914940;29;20220;-68
2022/05/23 10:43:57;;;;;;;8.38;4.03;;;;;;;23.73;59.41;99293.53;4914192;29;20205;-67
2022/05/23 10:46:27;;;;;;;7.00;3.65;;;;;;;23.60;60.25;99286.69;4912777;29;20252;-67
2022/05/23 10:49:02;;;;;;;8.98;4.00;;;;;;;23.50;60.22;99286.63;4914424;29;20652;-69
2022/05/23 10:51:35;;;;;;;6.93;3.63;;;;;;;23.35;61.07;99302.72;4910258;29;20231;-68
2022/05/23 10:54:22;;;;;;;7.03;3.75;;;;;;;23.26;61.74;99294.28;4913063;29;20253;-71
2022/05/23 10:57:07;;;;;;;6.68;3.45;;;;;;;23.25;61.64;99293.47;4912690;29;20258;-69
2022/05/23 10:59:42;;;;;;;7.82;3.78;;;;;;;23.29;61.92;99287.56;4913649;29;20328;-69
2022/05/23 11:02:31;;;;;;;7.40;4.15;;;;;;;23.23;63.14;99295.59;4908576;29;20652;-71
2022/05/23 11:05:13;;;;;;;7.13;3.83;;;;;;;23.32;63.05;99287.81;4913803;29;20284;-71
2022/05/23 11:07:50;;;;;;;9.48;3.92;;;;;;;23.25;63.49;99281.84;4912302;29;20213;-70
2022/05/23 11:10:36;;;;;;;11.82;4.38;;;;;;;23.16;64.63;99281.50;4913180;29;20240;-71
2022/05/23 11:13:21;;;;;;;11.10;3.65;;;;;;;23.37;63.80;99273.53;4912622;29;20225;-70
2022/05/23 11:16:02;;;;;;;5.97;3.78;;;;;;;23.35;64.41;99276.50;4912774;29;20220;-70
2022/05/23 11:18:45;;;;;;;6.82;3.80;;;;;;;23.49;63.76;99285.81;4914139;29;20216;-71
2022/05/23 11:21:21;;;;;;;7.22;3.85;;;;;;;23.47;64.12;99274.44;4914207;29;20643;-71
2022/05/23 11:23:54;;;;;;;9.77;3.72;;;;;;;23.45;64.60;99270.34;4910750;29;20666;-71
2022/05/23 11:26:37;;;;;;;7.93;3.90;;;;;;;23.45;65.23;99259.53;4913828;29;20244;-70
2022/05/23 11:34:52;;;;;;;9.88;3.70;;;;;;;23.43;65.16;99243.56;4913593;29;20244;-71
2022/05/23 11:40:12;;;;;;;9.60;3.63;;;;;;;23.52;65.79;99244.72;4915071;29;20252;-70
2022/05/23 11:42:44;;;;;;;8.38;3.60;;;;;;;23.55;65.50;99246.91;4914423;29;20204;-69
2022/05/23 11:48:43;;;;;;;5.93;3.67;;;;;;;23.61;65.05;99253.97;4913590;29;20248;-70
2022/05/23 11:51:27;;;;;;;10.73;4.20;;;;;;;23.55;65.09;99229.88;4921183;29;20208;-70
2022/05/23 11:54:03;;;;;;;7.60;4.05;;;;;;;23.70;64.83;99215.59;4911420;29;20205;-69
2022/05/23 11:56:38;;;;;;;6.28;3.70;;;;;;;23.63;65.26;99203.13;4913861;29;20695;-70
2022/05/23 11:59:08;;;;;;;8.68;4.05;;;;;;;23.68;64.86;99199.59;4914642;29;20216;-70
2022/05/23 12:01:37;;;;;;;7.82;4.18;;;;;;;23.72;64.08;99216.13;4913395;29;20628;-69
2022/05/23 12:04:19;;;;;;;5.72;3.50;;;;;;;23.70;63.61;99229.13;4913200;29;20643;-70
2022/05/23 12:06:48;;;;;;;7.15;3.67;;;;;;;23.58;64.22;99232.84;4915936;29;20310;-70
2022/05/23 12:09:34;;;;;;;7.00;4.03;;;;;;;23.58;64.70;99229.31;4916250;29;20232;-70
2022/05/23 12:12:48;;;;;;;8.75;4.60;;;;;;;23.55;64.84;99254.22;4912547;29;20497;-69
2022/05/23 12:15:52;;;;;;;7.30;4.30;;;;;;;23.56;65.61;99231.50;4913211;29;20324;-70
2022/05/23 12:18:33;;;;;;;8.18;4.32;;;;;;;23.61;64.92;99236.91;4916155;29;20213;-69
2022/05/23 12:21:06;;;;;;;8.77;4.70;;;;;;;23.54;64.49;99233.63;4916995;29;20213;-71
2022/05/23 12:23:42;;;;;;;8.07;4.38;;;;;;;23.42;64.97;99233.81;4920300;29;20248;-69
2022/05/23 12:26:25;;;;;;;9.50;5.10;;;;;;;23.43;64.72;99219.19;4919116;29;20207;-71
2022/05/23 12:28:57;;;;;;;10.63;5.22;;;;;;;23.30;65.29;99216.97;4913029;29;20212;-70
2022/05/23 12:31:27;;;;;;;10.45;5.10;;;;;;;23.28;65.80;99216.41;4914457;29;20655;-70
2022/05/23 12:34:12;;;;;;;9.50;4.78;;;;;;;23.26;66.64;99207.75;4916399;29;20247;-70
2022/05/23 12:36:50;;;;;;;14.38;5.40;;;;;;;23.23;66.70;99197.44;4914000;29;20250;-69
2022/05/23 12:39:43;;;;;;;11.25;4.57;;;;;;;23.18;67.13;99202.81;4912760;29;20295;-70
2022/05/23 12:42:31;;;;;;;8.75;4.72;;;;;;;23.22;67.49;99201.22;4915633;29;20307;-70
2022/05/23 12:45:35;;;;;;;10.25;4.88;;;;;;;23.27;67.71;99193.16;4912918;29;20209;-71
2022/05/23 12:48:24;;;;;;;11.90;5.20;;;;;;;23.34;67.40;99191.03;4913446;29;20636;-71
2022/05/23 12:50:59;;;;;;;6.78;4.45;;;;;;;23.24;68.13;99180.13;4915230;29;20216;-70
2022/05/23 12:53:38;;;;;;;9.95;5.25;;;;;;;23.25;68.38;99179.06;4914666;29;20302;-70
2022/05/23 12:56:35;;;;;;;9.07;5.05;;;;;;;23.26;68.08;99184.22;4914663;29;20303;-70